Terminal Aerodrome Forecast
Issued by NWS Knoxville/Tri Cities, TN

Home | Current Version | Previous Version | Text Only | Print | Product List | Glossary On
Versions: 1 2 3 4 5 6 7 8 9 10 11 12 13 14 15 16 17 18 19 20 21 22 23 24 25 26 27 28 29 30
000
FTUS44 KMRX 041133
TAFTYS
TAF
KTYS 041133Z 0412/0512 22006KT P6SM FEW007 SCT060 BKN080
      TEMPO 0412/0416 2SM SHRA BR BKN007
     FM041700 23010KT P6SM VCSH BKN020 BKN080
     FM042200 23008KT P6SM -SHRA BKN035
     FM050100 23008KT P6SM BKN040
     FM050300 23009KT 4SM -SHRA BR OVC040
     FM050600 22005KT 4SM -SHRA BR OVC015
     FM050900 VRB04KT 4SM -RA BR OVC007=

USA.gov is the U.S. government's official web portal to all federal, state and local government web resources and services.